Miyamaru No.3 — JPQN — position and weather

sailwx.info

Track history (hours):
 
Tides and Currents Weather Stations Pressure Air Temp Water Temp Dewpoint Dewpoint Depression Visibility Wind Speed Wind Dir Waves Ship Positions

Miyamaru No.3

Last reported at 2017-Dec-11 16:59 UTC. Time now 2017-Dec-11 19:15 UTC.
Position N 34°35' E 135°26'.

Length 105 m; draft 6.7 m.

Type: Tanker. MMSI: 431036000.

Date/timePositionNaut miles runAvg speedWind from/ knotsBaromVisibWave heightAir tempDewpointWater temp
2017-Dec-11 16:59N 34°35' E 135°26'0 0.0
2017-Dec-11 16:29N 34°35' E 135°26'0 0.0
2017-Dec-11 15:59N 34°35' E 135°26'0 0.0
2017-Dec-11 15:29N 34°35' E 135°26'0 0.0
2017-Dec-11 14:56N 34°35' E 135°26'0 0.0
2017-Dec-11 14:29N 34°35' E 135°26'0 0.0
2017-Dec-11 13:59N 34°35' E 135°26'0 0.0
2017-Dec-11 13:29N 34°35' E 135°26'0 0.0
2017-Dec-11 12:59N 34°35' E 135°26'0 0.0
2017-Dec-11 12:29N 34°35' E 135°26'0 0.0
2017-Dec-11 11:59N 34°35' E 135°26'0 0.0
2017-Dec-11 11:29N 34°35' E 135°26'0 0.0
2017-Dec-11 10:59N 34°35' E 135°26'0 0.0
2017-Dec-11 10:29N 34°35' E 135°26'0 0.0
2017-Dec-11 09:59N 34°35' E 135°26'0 0.0
2017-Dec-11 09:29N 34°35' E 135°26'0 0.0
2017-Dec-11 08:59N 34°35' E 135°26'0 0.0
2017-Dec-11 08:29N 34°35' E 135°26'0 0.0
2017-Dec-11 07:59N 34°35' E 135°26'0 0.0
2017-Dec-11 07:29N 34°35' E 135°26'0 0.0
2017-Dec-11 06:59N 34°35' E 135°26'0 0.0
2017-Dec-11 06:29N 34°35' E 135°26'0 0.0
2017-Dec-11 05:59N 34°35' E 135°26'0 0.0
2017-Dec-11 05:29N 34°35' E 135°26'0 0.0
2017-Dec-11 04:59N 34°35' E 135°26'0 0.0
2017-Dec-11 04:29N 34°35' E 135°26'0 0.0
2017-Dec-11 03:59N 34°35' E 135°26'0 0.0
2017-Dec-11 03:29N 34°35' E 135°26'0 0.0
2017-Dec-11 02:59N 34°35' E 135°26'0 0.0
2017-Dec-11 02:29N 34°35' E 135°26'0 0.0
2017-Dec-11 01:59N 34°35' E 135°26'0 0.0
2017-Dec-11 01:29N 34°35' E 135°26'0 0.0
2017-Dec-11 00:59N 34°35' E 135°26'0 0.0
2017-Dec-11 00:29N 34°35' E 135°26'0 0.0
2017-Dec-10 23:59N 34°35' E 135°26'0 0.0
2017-Dec-10 23:29N 34°35' E 135°26'0 0.8
2017-Dec-10 23:00N 34°35' E 135°25'3 5.3
2017-Dec-10 22:30N 34°36' E 135°23'1 2.4
2017-Dec-10 21:58N 34°35' E 135°23'0 0.1
2017-Dec-10 21:28N 34°35' E 135°23'0 0.1
2017-Dec-10 20:58N 34°35' E 135°23'0 0.1
2017-Dec-10 20:28N 34°35' E 135°23'0 0.0
2017-Dec-10 19:58N 34°35' E 135°23'0 0.0
2017-Dec-10 19:28N 34°35' E 135°23'0 0.0
2017-Dec-10 18:58N 34°35' E 135°23'0 0.0
2017-Dec-10 18:28N 34°35' E 135°23'0 0.0
2017-Dec-10 17:58N 34°35' E 135°23'0 0.0
2017-Dec-10 17:28N 34°35' E 135°23'0 0.0
2017-Dec-10 16:58N 34°35' E 135°23'0 0.0
2017-Dec-10 16:28N 34°35' E 135°23'0 0.2
2017-Dec-10 15:58N 34°35' E 135°22'3 6.9
2017-Dec-10 15:30N 34°34' E 135°19'611.3
2017-Dec-10 15:01N 34°30' E 135°14'611.4
2017-Dec-10 14:30N 34°26' E 135°09'611.3
2017-Dec-10 14:00N 34°22' E 135°04'611.0
2017-Dec-10 13:30N 34°18' E 134°60'510.1
2017-Dec-10 13:00N 34°13' E 134°60'510.9
2017-Dec-10 12:30N 34°07' E 135°00'611.5
2017-Dec-10 12:00N 34°02' E 134°60'611.6
2017-Dec-10 11:28N 33°56' E 135°00'147 9.7
2017-Dec-09 20:19N 34°26' E 137°55'411.0
2017-Dec-09 19:57N 34°27' E 137°59'610.5
2017-Dec-09 19:22N 34°29' E 138°06'3 9.5
2017-Dec-09 19:00N 34°30' E 138°10'6 9.0
2017-Dec-09 18:21N 34°31' E 138°17'5 9.5
2017-Dec-09 17:49N 34°31' E 138°23'3 9.7
2017-Dec-09 17:30N 34°32' E 138°27'5 9.7
2017-Dec-09 16:58N 34°32' E 138°33'5 9.3
2017-Dec-09 16:28N 34°32' E 138°39'9 8.8
2017-Dec-09 15:24N 34°33' E 138°50'3 8.3
2017-Dec-09 15:00N 34°33' E 138°54'4 7.5
2017-Dec-09 14:30N 34°34' E 138°59'5 9.6
2017-Dec-09 13:58N 34°38' E 139°03'510.1
2017-Dec-09 13:30N 34°42' E 139°06'1010.8
2017-Dec-09 12:33N 34°51' E 139°12'111.3
2017-Dec-09 12:30N 34°51' E 139°13'510.4
2017-Dec-09 12:00N 34°55' E 139°17'510.2
2017-Dec-09 11:28N 34°58' E 139°23'4 9.0
2017-Dec-09 11:00N 34°59' E 139°27'5 9.2
2017-Dec-09 10:30N 35°02' E 139°32'510.4
2017-Dec-09 10:00N 35°05' E 139°37'611.7
2017-Dec-09 09:30N 35°08' E 139°43'611.4
2017-Dec-09 09:00N 35°13' E 139°46'510.8
2017-Dec-09 08:30N 35°18' E 139°44'510.5
2017-Dec-09 08:00N 35°23' E 139°42'511.0
2017-Dec-09 07:31N 35°27' E 139°47'611.4
2017-Dec-09 07:00N 35°30' E 139°53'510.9
2017-Dec-09 06:30N 35°32' E 139°59'3 6.1
2017-Dec-09 06:00N 35°32' E 140°03'0 0.0
2017-Dec-09 00:01N 35°32' E 140°03'0 0.0
2017-Dec-09 00:00N 35°32' E 140°03'2 3.1
2017-Dec-08 23:30N 35°33' E 140°02'0 0.2
2017-Dec-08 22:29N 35°32' E 140°01'0 0.0
2017-Dec-08 21:53N 35°32' E 140°01'0 0.0
2017-Dec-08 21:23N 35°32' E 140°01'0 0.0
2017-Dec-08 20:59N 35°32' E 140°01'0 0.0
2017-Dec-08 20:23N 35°32' E 140°01'0 0.0
2017-Dec-08 19:59N 35°32' E 140°01'0 0.0
2017-Dec-08 19:29N 35°32' E 140°01'0 0.0
2017-Dec-08 18:59N 35°32' E 140°01'0 0.0
2017-Dec-08 18:29N 35°32' E 140°01'0 0.0
2017-Dec-08 17:59N 35°32' E 140°01'0 0.0
2017-Dec-08 17:29N 35°32' E 140°01'0 0.1
2017-Dec-08 16:53N 35°32' E 140°01'0 0.0
2017-Dec-08 16:23N 35°32' E 140°01'0 0.0
2017-Dec-08 15:59N 35°32' E 140°01'0 0.0
2017-Dec-08 15:29N 35°32' E 140°01'0 0.0
2017-Dec-08 14:59N 35°32' E 140°01'0 0.0
2017-Dec-08 14:29N 35°32' E 140°01'0 0.3
2017-Dec-08 14:01N 35°33' E 140°01'5 9.8
2017-Dec-08 13:30N 35°31' E 139°55'510.6
2017-Dec-08 13:00N 35°28' E 139°50'510.3
2017-Dec-08 12:30N 35°24' E 139°46'5 9.8
2017-Dec-08 12:00N 35°19' E 139°44'5 9.8
2017-Dec-08 11:30N 35°15' E 139°47'510.7
2017-Dec-08 11:00N 35°09' E 139°46'611.2
2017-Dec-08 10:30N 35°04' E 139°43'612.2
2017-Dec-08 10:00N 35°00' E 139°37'712.9
2017-Dec-08 09:29N 34°56' E 139°31'713.4
2017-Dec-08 09:00N 34°52' E 139°24'713.6
2017-Dec-08 08:29N 34°48' E 139°18'713.7
2017-Dec-08 08:00N 34°43' E 139°12'713.9
2017-Dec-08 07:30N 34°39' E 139°06'612.2
2017-Dec-08 06:59N 34°34' E 138°60'612.7
2017-Dec-08 06:30N 34°33' E 138°53'713.5
2017-Dec-08 05:59N 34°33' E 138°44'613.7
2017-Dec-08 05:30N 34°32' E 138°36'714.0
2017-Dec-08 04:59N 34°31' E 138°27'17410.8
2017-Dec-07 12:50N 33°48' E 135°04'412.2
2017-Dec-07 12:29N 33°51' E 135°00'611.8
2017-Dec-07 12:00N 33°57' E 134°59'611.9
2017-Dec-07 11:31N 34°03' E 134°59'611.9
2017-Dec-07 11:01N 34°09' E 134°59'612.9
2017-Dec-07 10:30N 34°15' E 134°59'612.6
2017-Dec-07 10:00N 34°21' E 135°00'612.7
2017-Dec-07 09:30N 34°26' E 135°06'612.8
2017-Dec-07 09:00N 34°30' E 135°12'612.2
2017-Dec-07 08:30N 34°33' E 135°18'611.2
2017-Dec-07 08:00N 34°36' E 135°24'2 4.7
2017-Dec-07 07:30N 34°35' E 135°26'0 0.0
2017-Dec-07 07:00N 34°35' E 135°26'0 0.0
2017-Dec-07 06:30N 34°35' E 135°26'0 0.0
2017-Dec-07 06:00N 34°35' E 135°26'0 0.0
2017-Dec-07 05:30N 34°35' E 135°26'0 0.0
2017-Dec-07 05:00N 34°35' E 135°26'0 0.0
2017-Dec-07 04:30N 34°35' E 135°26'0 0.0
2017-Dec-07 04:00N 34°35' E 135°26'0 0.0
2017-Dec-07 03:30N 34°35' E 135°26'0 0.0
2017-Dec-07 03:00N 34°35' E 135°26'0 0.0
2017-Dec-07 02:30N 34°35' E 135°26'0 0.0
2017-Dec-07 02:00N 34°35' E 135°26'0 0.0
2017-Dec-07 01:30N 34°35' E 135°26'0 0.0
2017-Dec-07 01:00N 34°35' E 135°26'0 0.0
2017-Dec-07 00:30N 34°35' E 135°26'0 0.0
2017-Dec-07 00:00N 34°35' E 135°26'0 0.0
2017-Dec-06 23:30N 34°35' E 135°26'0 0.3
2017-Dec-06 23:01N 34°35' E 135°26'3 5.3
2017-Dec-06 22:30N 34°36' E 135°23'3 6.7
2017-Dec-06 22:00N 34°35' E 135°20'4 8.7
2017-Dec-06 21:30N 34°31' E 135°16'510.9
2017-Dec-06 21:01N 34°28' E 135°11'  
2017-Dec-04 09:46N 35°33' E 140°02'0 0.0
2017-Dec-04 09:28N 35°33' E 140°02'0 0.0
2017-Dec-04 08:58N 35°33' E 140°02'0 0.0
2017-Dec-04 08:28N 35°33' E 140°02'0 0.0
2017-Dec-04 07:58N 35°33' E 140°02'0 0.1
2017-Dec-04 07:28N 35°33' E 140°02'0 0.1
2017-Dec-04 06:58N 35°33' E 140°02'0 0.0
2017-Dec-04 06:22N 35°33' E 140°02'0 0.0
2017-Dec-04 05:52N 35°33' E 140°02'1 1.8
2017-Dec-04 05:30N 35°32' E 140°02'1 0.2
2017-Dec-04 00:21N 35°32' E 140°03'1 1.9
2017-Dec-04 00:01N 35°32' E 140°03'4 8.5
2017-Dec-03 23:31N 35°32' E 139°58'510.7
2017-Dec-03 23:00N 35°29' E 139°52'510.9
2017-Dec-03 22:30N 35°25' E 139°47'510.3
2017-Dec-03 22:00N 35°20' E 139°45'5 9.9
2017-Dec-03 21:30N 35°16' E 139°47'510.9
2017-Dec-03 21:00N 35°10' E 139°46'611.4
2017-Dec-03 20:30N 35°05' E 139°43'611.9
2017-Dec-03 20:01N 35°01' E 139°38'612.6
2017-Dec-03 19:30N 34°57' E 139°32'813.1
2017-Dec-03 18:53N 34°52' E 139°24'512.5
2017-Dec-03 18:29N 34°49' E 139°19'611.8
2017-Dec-03 18:00N 34°45' E 139°14'612.3
2017-Dec-03 17:31N 34°41' E 139°09'711.5
2017-Dec-03 16:56N 34°36' E 139°03'511.3
2017-Dec-03 16:30N 34°33' E 138°59'612.6
2017-Dec-03 16:00N 34°33' E 138°51'612.3
2017-Dec-03 15:29N 34°33' E 138°43'612.2
2017-Dec-03 15:00N 34°32' E 138°36'612.4
2017-Dec-03 14:29N 34°32' E 138°28'712.8
2017-Dec-03 13:57N 34°32' E 138°20'4712.0
2017-Dec-03 10:05N 34°32' E 137°24'112.2
2017-Dec-03 09:59N 34°32' E 137°22'612.3
2017-Dec-03 09:30N 34°32' E 137°15'1611.2
2017-Dec-03 08:06N 34°36' E 136°57'211.3
2017-Dec-03 07:57N 34°37' E 136°55'511.6
2017-Dec-03 07:30N 34°40' E 136°50'611.7
2017-Dec-03 07:00N 34°46' E 136°47'611.3
2017-Dec-03 06:30N 34°51' E 136°44'611.2
2017-Dec-03 06:00N 34°56' E 136°41'3 5.8
2017-Dec-03 05:30N 34°58' E 136°39'0 0.0
2017-Dec-03 05:00N 34°58' E 136°39'0 0.0
2017-Dec-03 04:30N 34°58' E 136°39'0 0.0
2017-Dec-03 04:00N 34°58' E 136°39'0 0.0
2017-Dec-03 03:30N 34°58' E 136°39'0 0.0
2017-Dec-03 03:00N 34°58' E 136°39'0 0.0
2017-Dec-03 02:30N 34°58' E 136°39'0 0.0
2017-Dec-03 02:00N 34°58' E 136°39'0 0.0
2017-Dec-03 01:24N 34°58' E 136°39'0 0.0
2017-Dec-03 01:00N 34°58' E 136°39'0 0.0
2017-Dec-03 00:30N 34°58' E 136°39'0 0.0
2017-Dec-03 00:00N 34°58' E 136°39'0 0.0
2017-Dec-02 23:30N 34°58' E 136°39'1 2.4
2017-Dec-02 23:01N 34°57' E 136°39'2 3.0
2017-Dec-02 22:29N 34°57' E 136°41'0 0.0
2017-Dec-02 21:59N 34°57' E 136°41'0 0.0
2017-Dec-02 21:29N 34°57' E 136°41'0 0.0
2017-Dec-02 20:59N 34°57' E 136°41'0 0.0
2017-Dec-02 20:29N 34°57' E 136°41'0 0.0
2017-Dec-02 19:56N 34°57' E 136°41'0 0.0
2017-Dec-02 19:29N 34°57' E 136°41'0 0.0
2017-Dec-02 18:59N 34°57' E 136°41'0 0.0
2017-Dec-02 18:29N 34°57' E 136°41'0 0.0
2017-Dec-02 17:56N 34°57' E 136°41'0 0.0
2017-Dec-02 17:29N 34°57' E 136°41'0 0.0
2017-Dec-02 16:56N 34°57' E 136°41'0 0.0
2017-Dec-02 16:26N 34°57' E 136°41'0 0.0
2017-Dec-02 15:59N 34°57' E 136°41'0 0.0
2017-Dec-02 15:29N 34°57' E 136°41'0 0.0
2017-Dec-02 14:59N 34°57' E 136°41'0 0.0
2017-Dec-02 14:29N 34°57' E 136°41'0 0.0
2017-Dec-02 13:56N 34°57' E 136°41'0 0.0
2017-Dec-02 13:29N 34°57' E 136°41'0 0.1
2017-Dec-02 12:59N 34°57' E 136°41'0 0.0
2017-Dec-02 12:29N 34°57' E 136°41'0 0.0
2017-Dec-02 11:59N 34°57' E 136°41'0 0.1
2017-Dec-02 11:29N 34°57' E 136°41'0 0.0
2017-Dec-02 10:56N 34°57' E 136°41'0 0.0
2017-Dec-02 10:29N 34°57' E 136°41'0 0.0
2017-Dec-02 09:59N 34°57' E 136°41'0 0.0
2017-Dec-02 09:29N 34°57' E 136°41'0 0.0
2017-Dec-02 08:59N 34°57' E 136°41'0 0.4
2017-Dec-02 08:30N 34°57' E 136°41'2 1.1
2017-Dec-02 06:36N 34°58' E 136°39'0 0.0
2017-Dec-02 06:30N 34°58' E 136°39'0 0.0
2017-Dec-02 06:00N 34°58' E 136°39'0 0.0
2017-Dec-02 05:24N 34°58' E 136°39'0 0.0
2017-Dec-02 04:48N 34°58' E 136°39'0 0.0
2017-Dec-02 04:30N 34°58' E 136°39'0 0.0
2017-Dec-02 04:00N 34°58' E 136°39'0 0.0
2017-Dec-02 03:30N 34°58' E 136°39'0 0.0
2017-Dec-02 03:00N 34°58' E 136°39'0 0.0
2017-Dec-02 02:30N 34°58' E 136°39'0 0.0
2017-Dec-02 02:00N 34°58' E 136°39'1 1.7
2017-Dec-02 01:30N 34°57' E 136°39'2 2.7
2017-Dec-02 00:56N 34°57' E 136°41'0 0.0
2017-Dec-02 00:29N 34°57' E 136°41'0 0.0
2017-Dec-01 23:59N 34°57' E 136°41'0 0.0
2017-Dec-01 23:29N 34°57' E 136°41'0 0.0
2017-Dec-01 22:59N 34°57' E 136°41'0 0.0
2017-Dec-01 22:29N 34°57' E 136°41'0 0.0
2017-Dec-01 21:56N 34°57' E 136°41'0 0.0
2017-Dec-01 21:26N 34°57' E 136°41'0 0.0
2017-Dec-01 20:59N 34°57' E 136°41'0 0.0
2017-Dec-01 20:26N 34°57' E 136°41'2 4.6
2017-Dec-01 20:00N 34°57' E 136°39'1 1.3
2017-Dec-01 19:30N 34°56' E 136°38'0 0.0
2017-Dec-01 18:59N 34°56' E 136°38'0 0.0
2017-Dec-01 18:29N 34°56' E 136°38'0 0.0
2017-Dec-01 17:59N 34°56' E 136°38'0 0.0
2017-Dec-01 17:29N 34°56' E 136°38'  
Track history (hours):
 
Tides and Currents Weather Stations Pressure Air Temp Water Temp Dewpoint Dewpoint Depression Visibility Wind Speed Wind Dir Waves Ship Positions

Miyamaru No.3

Last reported at 2017-Dec-11 16:59 UTC. Time now 2017-Dec-11 19:15 UTC.
Position N 34°35' E 135°26'.

Length 105 m; draft 6.7 m.

Type: Tanker. MMSI: 431036000.

Date/timePositionNaut miles runAvg speedWind from/ knotsBaromVisibWave heightAir tempDewpointWater temp
2017-Dec-11 16:59N 34°35' E 135°26'0 0.0
2017-Dec-11 16:29N 34°35' E 135°26'0 0.0
2017-Dec-11 15:59N 34°35' E 135°26'0 0.0
2017-Dec-11 15:29N 34°35' E 135°26'0 0.0
2017-Dec-11 14:56N 34°35' E 135°26'0 0.0
2017-Dec-11 14:29N 34°35' E 135°26'0 0.0
2017-Dec-11 13:59N 34°35' E 135°26'0 0.0
2017-Dec-11 13:29N 34°35' E 135°26'0 0.0
2017-Dec-11 12:59N 34°35' E 135°26'0 0.0
2017-Dec-11 12:29N 34°35' E 135°26'0 0.0
2017-Dec-11 11:59N 34°35' E 135°26'0 0.0
2017-Dec-11 11:29N 34°35' E 135°26'0 0.0
2017-Dec-11 10:59N 34°35' E 135°26'0 0.0
2017-Dec-11 10:29N 34°35' E 135°26'0 0.0
2017-Dec-11 09:59N 34°35' E 135°26'0 0.0
2017-Dec-11 09:29N 34°35' E 135°26'0 0.0
2017-Dec-11 08:59N 34°35' E 135°26'0 0.0
2017-Dec-11 08:29N 34°35' E 135°26'0 0.0
2017-Dec-11 07:59N 34°35' E 135°26'0 0.0
2017-Dec-11 07:29N 34°35' E 135°26'0 0.0
2017-Dec-11 06:59N 34°35' E 135°26'0 0.0
2017-Dec-11 06:29N 34°35' E 135°26'0 0.0
2017-Dec-11 05:59N 34°35' E 135°26'0 0.0
2017-Dec-11 05:29N 34°35' E 135°26'0 0.0
2017-Dec-11 04:59N 34°35' E 135°26'0 0.0
2017-Dec-11 04:29N 34°35' E 135°26'0 0.0
2017-Dec-11 03:59N 34°35' E 135°26'0 0.0
2017-Dec-11 03:29N 34°35' E 135°26'0 0.0
2017-Dec-11 02:59N 34°35' E 135°26'0 0.0
2017-Dec-11 02:29N 34°35' E 135°26'0 0.0
2017-Dec-11 01:59N 34°35' E 135°26'0 0.0
2017-Dec-11 01:29N 34°35' E 135°26'0 0.0
2017-Dec-11 00:59N 34°35' E 135°26'0 0.0
2017-Dec-11 00:29N 34°35' E 135°26'0 0.0
2017-Dec-10 23:59N 34°35' E 135°26'0 0.0
2017-Dec-10 23:29N 34°35' E 135°26'0 0.8
2017-Dec-10 23:00N 34°35' E 135°25'3 5.3
2017-Dec-10 22:30N 34°36' E 135°23'1 2.4
2017-Dec-10 21:58N 34°35' E 135°23'0 0.1
2017-Dec-10 21:28N 34°35' E 135°23'0 0.1
2017-Dec-10 20:58N 34°35' E 135°23'0 0.1
2017-Dec-10 20:28N 34°35' E 135°23'0 0.0
2017-Dec-10 19:58N 34°35' E 135°23'0 0.0
2017-Dec-10 19:28N 34°35' E 135°23'0 0.0
2017-Dec-10 18:58N 34°35' E 135°23'0 0.0
2017-Dec-10 18:28N 34°35' E 135°23'0 0.0
2017-Dec-10 17:58N 34°35' E 135°23'0 0.0
2017-Dec-10 17:28N 34°35' E 135°23'0 0.0
2017-Dec-10 16:58N 34°35' E 135°23'0 0.0
2017-Dec-10 16:28N 34°35' E 135°23'0 0.2
2017-Dec-10 15:58N 34°35' E 135°22'3 6.9
2017-Dec-10 15:30N 34°34' E 135°19'611.3
2017-Dec-10 15:01N 34°30' E 135°14'611.4
2017-Dec-10 14:30N 34°26' E 135°09'611.3
2017-Dec-10 14:00N 34°22' E 135°04'611.0
2017-Dec-10 13:30N 34°18' E 134°60'510.1
2017-Dec-10 13:00N 34°13' E 134°60'510.9
2017-Dec-10 12:30N 34°07' E 135°00'611.5
2017-Dec-10 12:00N 34°02' E 134°60'611.6
2017-Dec-10 11:28N 33°56' E 135°00'147 9.7
2017-Dec-09 20:19N 34°26' E 137°55'411.0
2017-Dec-09 19:57N 34°27' E 137°59'610.5
2017-Dec-09 19:22N 34°29' E 138°06'3 9.5
2017-Dec-09 19:00N 34°30' E 138°10'6 9.0
2017-Dec-09 18:21N 34°31' E 138°17'5 9.5
2017-Dec-09 17:49N 34°31' E 138°23'3 9.7
2017-Dec-09 17:30N 34°32' E 138°27'5 9.7
2017-Dec-09 16:58N 34°32' E 138°33'5 9.3
2017-Dec-09 16:28N 34°32' E 138°39'9 8.8
2017-Dec-09 15:24N 34°33' E 138°50'3 8.3
2017-Dec-09 15:00N 34°33' E 138°54'4 7.5
2017-Dec-09 14:30N 34°34' E 138°59'5 9.6
2017-Dec-09 13:58N 34°38' E 139°03'510.1
2017-Dec-09 13:30N 34°42' E 139°06'1010.8
2017-Dec-09 12:33N 34°51' E 139°12'111.3
2017-Dec-09 12:30N 34°51' E 139°13'510.4
2017-Dec-09 12:00N 34°55' E 139°17'510.2
2017-Dec-09 11:28N 34°58' E 139°23'4 9.0
2017-Dec-09 11:00N 34°59' E 139°27'5 9.2
2017-Dec-09 10:30N 35°02' E 139°32'510.4
2017-Dec-09 10:00N 35°05' E 139°37'611.7
2017-Dec-09 09:30N 35°08' E 139°43'611.4
2017-Dec-09 09:00N 35°13' E 139°46'510.8
2017-Dec-09 08:30N 35°18' E 139°44'510.5
2017-Dec-09 08:00N 35°23' E 139°42'511.0
2017-Dec-09 07:31N 35°27' E 139°47'611.4
2017-Dec-09 07:00N 35°30' E 139°53'510.9
2017-Dec-09 06:30N 35°32' E 139°59'3 6.1
2017-Dec-09 06:00N 35°32' E 140°03'0 0.0
2017-Dec-09 00:01N 35°32' E 140°03'0 0.0
2017-Dec-09 00:00N 35°32' E 140°03'2 3.1
2017-Dec-08 23:30N 35°33' E 140°02'0 0.2
2017-Dec-08 22:29N 35°32' E 140°01'0 0.0
2017-Dec-08 21:53N 35°32' E 140°01'0 0.0
2017-Dec-08 21:23N 35°32' E 140°01'0 0.0
2017-Dec-08 20:59N 35°32' E 140°01'0 0.0
2017-Dec-08 20:23N 35°32' E 140°01'0 0.0
2017-Dec-08 19:59N 35°32' E 140°01'0 0.0
2017-Dec-08 19:29N 35°32' E 140°01'0 0.0
2017-Dec-08 18:59N 35°32' E 140°01'0 0.0
2017-Dec-08 18:29N 35°32' E 140°01'0 0.0
2017-Dec-08 17:59N 35°32' E 140°01'0 0.0
2017-Dec-08 17:29N 35°32' E 140°01'0 0.1
2017-Dec-08 16:53N 35°32' E 140°01'0 0.0
2017-Dec-08 16:23N 35°32' E 140°01'0 0.0
2017-Dec-08 15:59N 35°32' E 140°01'0 0.0
2017-Dec-08 15:29N 35°32' E 140°01'0 0.0
2017-Dec-08 14:59N 35°32' E 140°01'0 0.0
2017-Dec-08 14:29N 35°32' E 140°01'0 0.3
2017-Dec-08 14:01N 35°33' E 140°01'5 9.8
2017-Dec-08 13:30N 35°31' E 139°55'510.6
2017-Dec-08 13:00N 35°28' E 139°50'510.3
2017-Dec-08 12:30N 35°24' E 139°46'5 9.8
2017-Dec-08 12:00N 35°19' E 139°44'5 9.8
2017-Dec-08 11:30N 35°15' E 139°47'510.7
2017-Dec-08 11:00N 35°09' E 139°46'611.2
2017-Dec-08 10:30N 35°04' E 139°43'612.2
2017-Dec-08 10:00N 35°00' E 139°37'712.9
2017-Dec-08 09:29N 34°56' E 139°31'713.4
2017-Dec-08 09:00N 34°52' E 139°24'713.6
2017-Dec-08 08:29N 34°48' E 139°18'713.7
2017-Dec-08 08:00N 34°43' E 139°12'713.9
2017-Dec-08 07:30N 34°39' E 139°06'612.2
2017-Dec-08 06:59N 34°34' E 138°60'612.7
2017-Dec-08 06:30N 34°33' E 138°53'713.5
2017-Dec-08 05:59N 34°33' E 138°44'613.7
2017-Dec-08 05:30N 34°32' E 138°36'714.0
2017-Dec-08 04:59N 34°31' E 138°27'17410.8
2017-Dec-07 12:50N 33°48' E 135°04'412.2
2017-Dec-07 12:29N 33°51' E 135°00'611.8
2017-Dec-07 12:00N 33°57' E 134°59'611.9
2017-Dec-07 11:31N 34°03' E 134°59'611.9
2017-Dec-07 11:01N 34°09' E 134°59'612.9
2017-Dec-07 10:30N 34°15' E 134°59'612.6
2017-Dec-07 10:00N 34°21' E 135°00'612.7
2017-Dec-07 09:30N 34°26' E 135°06'612.8
2017-Dec-07 09:00N 34°30' E 135°12'612.2
2017-Dec-07 08:30N 34°33' E 135°18'611.2
2017-Dec-07 08:00N 34°36' E 135°24'2 4.7
2017-Dec-07 07:30N 34°35' E 135°26'0 0.0
2017-Dec-07 07:00N 34°35' E 135°26'0 0.0
2017-Dec-07 06:30N 34°35' E 135°26'0 0.0
2017-Dec-07 06:00N 34°35' E 135°26'0 0.0
2017-Dec-07 05:30N 34°35' E 135°26'0 0.0
2017-Dec-07 05:00N 34°35' E 135°26'0 0.0
2017-Dec-07 04:30N 34°35' E 135°26'0 0.0
2017-Dec-07 04:00N 34°35' E 135°26'0 0.0
2017-Dec-07 03:30N 34°35' E 135°26'0 0.0
2017-Dec-07 03:00N 34°35' E 135°26'0 0.0
2017-Dec-07 02:30N 34°35' E 135°26'0 0.0
2017-Dec-07 02:00N 34°35' E 135°26'0 0.0
2017-Dec-07 01:30N 34°35' E 135°26'0 0.0
2017-Dec-07 01:00N 34°35' E 135°26'0 0.0
2017-Dec-07 00:30N 34°35' E 135°26'0 0.0
2017-Dec-07 00:00N 34°35' E 135°26'0 0.0
2017-Dec-06 23:30N 34°35' E 135°26'0 0.3
2017-Dec-06 23:01N 34°35' E 135°26'3 5.3
2017-Dec-06 22:30N 34°36' E 135°23'3 6.7
2017-Dec-06 22:00N 34°35' E 135°20'4 8.7
2017-Dec-06 21:30N 34°31' E 135°16'510.9
2017-Dec-06 21:01N 34°28' E 135°11'  
2017-Dec-04 09:46N 35°33' E 140°02'0 0.0
2017-Dec-04 09:28N 35°33' E 140°02'0 0.0
2017-Dec-04 08:58N 35°33' E 140°02'0 0.0
2017-Dec-04 08:28N 35°33' E 140°02'0 0.0
2017-Dec-04 07:58N 35°33' E 140°02'0 0.1
2017-Dec-04 07:28N 35°33' E 140°02'0 0.1
2017-Dec-04 06:58N 35°33' E 140°02'0 0.0
2017-Dec-04 06:22N 35°33' E 140°02'0 0.0
2017-Dec-04 05:52N 35°33' E 140°02'1 1.8
2017-Dec-04 05:30N 35°32' E 140°02'1 0.2
2017-Dec-04 00:21N 35°32' E 140°03'1 1.9
2017-Dec-04 00:01N 35°32' E 140°03'4 8.5
2017-Dec-03 23:31N 35°32' E 139°58'510.7
2017-Dec-03 23:00N 35°29' E 139°52'510.9
2017-Dec-03 22:30N 35°25' E 139°47'510.3
2017-Dec-03 22:00N 35°20' E 139°45'5 9.9
2017-Dec-03 21:30N 35°16' E 139°47'510.9
2017-Dec-03 21:00N 35°10' E 139°46'611.4
2017-Dec-03 20:30N 35°05' E 139°43'611.9
2017-Dec-03 20:01N 35°01' E 139°38'612.6
2017-Dec-03 19:30N 34°57' E 139°32'813.1
2017-Dec-03 18:53N 34°52' E 139°24'512.5
2017-Dec-03 18:29N 34°49' E 139°19'611.8
2017-Dec-03 18:00N 34°45' E 139°14'612.3
2017-Dec-03 17:31N 34°41' E 139°09'711.5
2017-Dec-03 16:56N 34°36' E 139°03'511.3
2017-Dec-03 16:30N 34°33' E 138°59'612.6
2017-Dec-03 16:00N 34°33' E 138°51'612.3
2017-Dec-03 15:29N 34°33' E 138°43'612.2
2017-Dec-03 15:00N 34°32' E 138°36'612.4
2017-Dec-03 14:29N 34°32' E 138°28'712.8
2017-Dec-03 13:57N 34°32' E 138°20'4712.0
2017-Dec-03 10:05N 34°32' E 137°24'112.2
2017-Dec-03 09:59N 34°32' E 137°22'612.3
2017-Dec-03 09:30N 34°32' E 137°15'1611.2
2017-Dec-03 08:06N 34°36' E 136°57'211.3
2017-Dec-03 07:57N 34°37' E 136°55'511.6
2017-Dec-03 07:30N 34°40' E 136°50'611.7
2017-Dec-03 07:00N 34°46' E 136°47'611.3
2017-Dec-03 06:30N 34°51' E 136°44'611.2
2017-Dec-03 06:00N 34°56' E 136°41'3 5.8
2017-Dec-03 05:30N 34°58' E 136°39'0 0.0
2017-Dec-03 05:00N 34°58' E 136°39'0 0.0
2017-Dec-03 04:30N 34°58' E 136°39'0 0.0
2017-Dec-03 04:00N 34°58' E 136°39'0 0.0
2017-Dec-03 03:30N 34°58' E 136°39'0 0.0
2017-Dec-03 03:00N 34°58' E 136°39'0 0.0
2017-Dec-03 02:30N 34°58' E 136°39'0 0.0
2017-Dec-03 02:00N 34°58' E 136°39'0 0.0
2017-Dec-03 01:24N 34°58' E 136°39'0 0.0
2017-Dec-03 01:00N 34°58' E 136°39'0 0.0
2017-Dec-03 00:30N 34°58' E 136°39'0 0.0
2017-Dec-03 00:00N 34°58' E 136°39'0 0.0
2017-Dec-02 23:30N 34°58' E 136°39'1 2.4
2017-Dec-02 23:01N 34°57' E 136°39'2 3.0
2017-Dec-02 22:29N 34°57' E 136°41'0 0.0
2017-Dec-02 21:59N 34°57' E 136°41'0 0.0
2017-Dec-02 21:29N 34°57' E 136°41'0 0.0
2017-Dec-02 20:59N 34°57' E 136°41'0 0.0
2017-Dec-02 20:29N 34°57' E 136°41'0 0.0
2017-Dec-02 19:56N 34°57' E 136°41'0 0.0
2017-Dec-02 19:29N 34°57' E 136°41'0 0.0
2017-Dec-02 18:59N 34°57' E 136°41'0 0.0
2017-Dec-02 18:29N 34°57' E 136°41'0 0.0
2017-Dec-02 17:56N 34°57' E 136°41'0 0.0
2017-Dec-02 17:29N 34°57' E 136°41'0 0.0
2017-Dec-02 16:56N 34°57' E 136°41'0 0.0
2017-Dec-02 16:26N 34°57' E 136°41'0 0.0
2017-Dec-02 15:59N 34°57' E 136°41'0 0.0
2017-Dec-02 15:29N 34°57' E 136°41'0 0.0
2017-Dec-02 14:59N 34°57' E 136°41'0 0.0
2017-Dec-02 14:29N 34°57' E 136°41'0 0.0
2017-Dec-02 13:56N 34°57' E 136°41'0 0.0
2017-Dec-02 13:29N 34°57' E 136°41'0 0.1
2017-Dec-02 12:59N 34°57' E 136°41'0 0.0
2017-Dec-02 12:29N 34°57' E 136°41'0 0.0
2017-Dec-02 11:59N 34°57' E 136°41'0 0.1
2017-Dec-02 11:29N 34°57' E 136°41'0 0.0
2017-Dec-02 10:56N 34°57' E 136°41'0 0.0
2017-Dec-02 10:29N 34°57' E 136°41'0 0.0
2017-Dec-02 09:59N 34°57' E 136°41'0 0.0
2017-Dec-02 09:29N 34°57' E 136°41'0 0.0
2017-Dec-02 08:59N 34°57' E 136°41'0 0.4
2017-Dec-02 08:30N 34°57' E 136°41'2 1.1
2017-Dec-02 06:36N 34°58' E 136°39'0 0.0
2017-Dec-02 06:30N 34°58' E 136°39'0 0.0
2017-Dec-02 06:00N 34°58' E 136°39'0 0.0
2017-Dec-02 05:24N 34°58' E 136°39'0 0.0
2017-Dec-02 04:48N 34°58' E 136°39'0 0.0
2017-Dec-02 04:30N 34°58' E 136°39'0 0.0
2017-Dec-02 04:00N 34°58' E 136°39'0 0.0
2017-Dec-02 03:30N 34°58' E 136°39'0 0.0
2017-Dec-02 03:00N 34°58' E 136°39'0 0.0
2017-Dec-02 02:30N 34°58' E 136°39'0 0.0
2017-Dec-02 02:00N 34°58' E 136°39'1 1.7
2017-Dec-02 01:30N 34°57' E 136°39'2 2.7
2017-Dec-02 00:56N 34°57' E 136°41'0 0.0
2017-Dec-02 00:29N 34°57' E 136°41'0 0.0
2017-Dec-01 23:59N 34°57' E 136°41'0 0.0
2017-Dec-01 23:29N 34°57' E 136°41'0 0.0
2017-Dec-01 22:59N 34°57' E 136°41'0 0.0
2017-Dec-01 22:29N 34°57' E 136°41'0 0.0
2017-Dec-01 21:56N 34°57' E 136°41'0 0.0
2017-Dec-01 21:26N 34°57' E 136°41'0 0.0
2017-Dec-01 20:59N 34°57' E 136°41'0 0.0
2017-Dec-01 20:26N 34°57' E 136°41'2 4.6
2017-Dec-01 20:00N 34°57' E 136°39'1 1.3
2017-Dec-01 19:30N 34°56' E 136°38'0 0.0
2017-Dec-01 18:59N 34°56' E 136°38'0 0.0
2017-Dec-01 18:29N 34°56' E 136°38'0 0.0
2017-Dec-01 17:59N 34°56' E 136°38'0 0.0
2017-Dec-01 17:29N 34°56' E 136°38'  

Dump ship's entire track history